Time;durP1;ratioP1;P1;durP2;ratioP2;P2;SDS_P1;SDS_P2;PMS_P1;PMS_P2;Temp;Humidity;BMP_temperature;BMP_pressure;BME280_temperature;BME280_humidity;BME280_pressure;Samples;Min_cycle;Max_cycle;Signal;HPM_P1;HPM_P2
2022/09/08 00:01:20;;;;;;;11.95;4.18;;;;;;;17.32;86.20;100800.31;5114742;28;20077;-43
2022/09/08 00:03:46;;;;;;;9.60;4.28;;;;;;;17.36;85.23;100791.63;5115110;28;20074;-43
2022/09/08 00:06:16;;;;;;;11.43;4.15;;;;;;;17.21;84.93;100786.41;5114644;28;20035;-44
2022/09/08 00:08:44;;;;;;;9.75;4.00;;;;;;;17.29;86.67;100779.47;5115466;28;20023;-45
2022/09/08 00:11:10;;;;;;;14.73;4.30;;;;;;;17.30;85.56;100786.44;5115480;28;20051;-44
2022/09/08 00:13:38;;;;;;;9.93;4.90;;;;;;;17.28;85.41;100795.97;5114292;28;20037;-42
2022/09/08 00:16:07;;;;;;;14.13;4.45;;;;;;;17.32;86.96;100799.44;5114806;28;20382;-45
2022/09/08 00:18:34;;;;;;;12.65;4.75;;;;;;;17.31;87.67;100808.97;5114835;28;20552;-46
2022/09/08 00:20:59;;;;;;;11.32;4.07;;;;;;;17.32;85.52;100800.31;5114137;28;20023;-42
2022/09/08 00:23:24;;;;;;;8.85;4.00;;;;;;;17.30;87.42;100807.28;5114774;28;20038;-42
2022/09/08 00:25:50;;;;;;;11.23;4.70;;;;;;;17.20;88.14;100805.53;5114991;28;20467;-48
2022/09/08 00:28:15;;;;;;;13.00;5.05;;;;;;;17.08;91.28;100804.63;5114034;28;20026;-46
2022/09/08 00:30:40;;;;;;;14.02;5.40;;;;;;;16.90;94.33;100796.72;5114682;28;20027;-46
2022/09/08 00:33:06;;;;;;;12.70;5.25;;;;;;;16.76;95.86;100787.16;5114614;28;20099;-47
2022/09/08 00:35:31;;;;;;;14.48;5.38;;;;;;;16.60;98.13;100794.03;5113588;28;20031;-46
2022/09/08 00:37:56;;;;;;;14.00;4.82;;;;;;;16.50;99.04;100793.97;5114686;28;20050;-45
2022/09/08 00:40:24;;;;;;;12.00;4.43;;;;;;;16.36;99.44;100783.50;5114288;28;20031;-46
2022/09/08 00:43:01;;;;;;;12.68;4.80;;;;;;;16.29;100.00;100787.81;5113593;28;20035;-45
2022/09/08 00:45:32;;;;;;;14.68;5.63;;;;;;;16.21;100.00;100784.31;5114300;27;20386;-47
2022/09/08 00:48:05;;;;;;;13.10;4.97;;;;;;;16.16;100.00;100783.44;5113551;28;20102;-48
2022/09/08 00:50:31;;;;;;;13.63;4.82;;;;;;;16.13;100.00;100777.34;5114493;28;20024;-45
2022/09/08 00:53:03;;;;;;;14.13;5.50;;;;;;;16.14;100.00;100757.44;5114579;28;20065;-47
2022/09/08 00:55:33;;;;;;;12.82;5.07;;;;;;;16.13;100.00;100759.13;5113459;28;20028;-48
2022/09/08 00:57:59;;;;;;;17.10;5.55;;;;;;;16.09;100.00;100767.78;5114762;28;20098;-47
2022/09/08 01:00:25;;;;;;;18.20;5.85;;;;;;;16.05;100.00;100773.84;5113787;28;20108;-49
2022/09/08 01:02:50;;;;;;;14.77;6.05;;;;;;;16.00;100.00;100764.25;5113275;28;20475;-48
2022/09/08 01:05:20;;;;;;;12.93;6.53;;;;;;;15.95;100.00;100759.91;5114039;28;20034;-46
2022/09/08 01:14:08;;;;;;;16.73;7.35;;;;;;;15.98;100.00;100740.84;5057712;28;20040;-48
2022/09/08 01:16:46;;;;;;;14.90;7.30;;;;;;;15.93;100.00;100737.34;5113115;28;20023;-48
2022/09/08 01:19:19;;;;;;;14.85;7.00;;;;;;;15.95;100.00;100740.84;5113714;28;20051;-47
2022/09/08 01:22:02;;;;;;;14.10;7.20;;;;;;;15.99;100.00;100745.19;5113982;28;20070;-46
2022/09/08 01:24:34;;;;;;;12.93;6.88;;;;;;;15.91;100.00;100744.28;5113042;28;20028;-49
2022/09/08 01:27:08;;;;;;;14.10;6.93;;;;;;;15.96;100.00;100740.00;5113717;28;20356;-47
2022/09/08 01:29:34;;;;;;;14.13;7.13;;;;;;;15.86;100.00;100726.06;5113578;28;20036;-47
2022/09/08 01:32:00;;;;;;;13.07;6.97;;;;;;;15.83;100.00;100718.25;5112829;28;20057;-49
2022/09/08 01:34:26;;;;;;;15.32;7.45;;;;;;;15.79;100.00;100714.75;5113439;28;20031;-46
2022/09/08 01:36:51;;;;;;;14.32;6.97;;;;;;;15.77;100.00;100706.06;5112874;28;20032;-48
2022/09/08 01:39:17;;;;;;;12.93;7.72;;;;;;;15.76;100.00;100704.34;5113281;28;20022;-42
2022/09/08 01:41:42;;;;;;;15.23;7.40;;;;;;;15.76;100.00;100709.53;5113600;28;20023;-44
2022/09/08 01:44:08;;;;;;;16.35;8.23;;;;;;;15.77;100.00;100707.78;5112353;28;20054;-46
2022/09/08 01:46:33;;;;;;;21.63;9.43;;;;;;;15.80;100.00;100713.88;5113328;28;20030;-46
2022/09/08 01:48:58;;;;;;;16.85;9.05;;;;;;;15.78;100.00;100723.38;5113783;28;20020;-47
2022/09/08 01:51:24;;;;;;;18.50;9.30;;;;;;;15.78;100.00;100723.38;5112545;28;20019;-49
2022/09/08 01:53:49;;;;;;;16.10;9.00;;;;;;;15.75;100.00;100713.00;5113461;28;20430;-43
2022/09/08 01:56:15;;;;;;;21.40;9.75;;;;;;;15.73;100.00;100696.50;5113130;28;20031;-43
2022/09/08 01:58:40;;;;;;;16.35;7.68;;;;;;;15.70;100.00;100693.91;5112494;28;20459;-43
2022/09/08 02:01:06;;;;;;;14.40;7.15;;;;;;;15.76;100.00;100687.84;5113134;28;20030;-43
2022/09/08 02:03:31;;;;;;;15.20;7.10;;;;;;;15.69;100.00;100684.38;5113262;28;20125;-45
2022/09/08 02:06:01;;;;;;;19.88;7.68;;;;;;;15.74;100.00;100685.25;5112643;28;20051;-45
2022/09/08 02:08:27;;;;;;;17.00;7.53;;;;;;;15.82;100.00;100679.28;5113115;28;20028;-43
2022/09/08 02:10:54;;;;;;;14.32;6.30;;;;;;;15.62;100.00;100669.59;5113200;28;20467;-45
2022/09/08 02:13:19;;;;;;;13.40;6.03;;;;;;;15.59;100.00;100666.97;5112049;28;20027;-44
2022/09/08 02:15:44;;;;;;;18.77;6.90;;;;;;;15.59;100.00;100675.63;5113322;28;20023;-43
2022/09/08 02:18:09;;;;;;;11.07;5.70;;;;;;;15.61;100.00;100668.72;5112965;28;20360;-45
2022/09/08 02:20:35;;;;;;;12.05;5.50;;;;;;;15.58;100.00;100657.44;5112353;28;20114;-47
2022/09/08 02:23:00;;;;;;;12.98;6.53;;;;;;;15.61;100.00;100660.09;5113026;28;20039;-43
2022/09/08 02:25:25;;;;;;;14.40;6.07;;;;;;;15.55;100.00;100658.28;5114723;28;20034;-48
2022/09/08 02:27:52;;;;;;;10.85;5.85;;;;;;;15.51;100.00;100647.91;5116271;28;20023;-47
2022/09/08 02:30:18;;;;;;;13.43;4.97;;;;;;;15.46;100.00;100640.91;5116730;28;20416;-48
2022/09/08 02:32:43;;;;;;;13.82;6.00;;;;;;;15.47;100.00;100640.06;5117282;28;20019;-47
2022/09/08 02:35:08;;;;;;;10.05;6.10;;;;;;;15.48;100.00;100636.63;5116107;28;20073;-48
2022/09/08 02:37:33;;;;;;;12.45;5.68;;;;;;;15.45;100.00;100640.91;5116971;28;20046;-44
2022/09/08 02:39:59;;;;;;;17.58;6.82;;;;;;;15.46;100.00;100645.25;5117021;28;20509;-46
2022/09/08 02:42:24;;;;;;;11.95;6.47;;;;;;;15.47;100.00;100649.59;5115771;28;20030;-47
2022/09/08 02:44:49;;;;;;;13.40;6.50;;;;;;;15.46;100.00;100658.25;5116664;28;20052;-48
2022/09/08 02:47:15;;;;;;;13.60;5.97;;;;;;;15.45;100.00;100662.59;5116146;28;20025;-47
2022/09/08 02:49:40;;;;;;;12.65;5.80;;;;;;;15.48;100.00;100657.41;5116769;28;20024;-45
2022/09/08 02:52:06;;;;;;;11.20;6.20;;;;;;;15.44;100.00;100650.44;5116407;28;20047;-48
2022/09/08 02:54:31;;;;;;;15.43;6.70;;;;;;;15.46;100.00;100653.06;5115621;28;20054;-47
2022/09/08 02:56:56;;;;;;;14.75;7.43;;;;;;;15.45;100.00;100657.38;5116713;28;20081;-46
2022/09/08 02:59:21;;;;;;;16.13;7.28;;;;;;;15.43;100.00;100663.44;5116233;28;20024;-46
2022/09/08 03:01:47;;;;;;;20.08;8.07;;;;;;;15.46;100.00;100664.28;5115880;28;20027;-45
2022/09/08 03:04:13;;;;;;;15.38;8.18;;;;;;;15.48;100.00;100661.75;5116497;28;20028;-45
2022/09/08 03:06:39;;;;;;;17.08;7.93;;;;;;;15.47;100.00;100658.25;5116216;28;20471;-43
2022/09/08 03:09:06;;;;;;;14.88;7.38;;;;;;;15.46;100.00;100660.84;5115579;28;20103;-44
2022/09/08 03:11:32;;;;;;;13.52;6.47;;;;;;;15.43;100.00;100669.47;5116283;28;20027;-43
2022/09/08 03:13:58;;;;;;;13.02;6.88;;;;;;;15.41;100.00;100666.00;5116023;28;20071;-45
2022/09/08 03:16:25;;;;;;;11.77;7.05;;;;;;;15.38;100.00;100659.94;5115382;28;20032;-44
2022/09/08 03:18:50;;;;;;;11.20;7.57;;;;;;;15.43;100.00;100658.25;5116218;28;20031;-44
2022/09/08 03:21:16;;;;;;;16.25;8.10;;;;;;;15.43;100.00;100664.28;5115909;28;20068;-45
2022/09/08 03:23:41;;;;;;;17.40;8.52;;;;;;;15.44;100.00;100670.34;5115333;28;20043;-44
2022/09/08 03:26:12;;;;;;;13.45;7.85;;;;;;;15.43;100.00;100663.44;5115841;28;20032;-46
2022/09/08 03:28:38;;;;;;;15.32;8.25;;;;;;;15.41;100.00;100658.22;5115965;27;20107;-47
2022/09/08 03:31:08;;;;;;;15.88;8.30;;;;;;;15.43;100.00;100659.09;5115134;28;20039;-43
2022/09/08 03:33:34;;;;;;;14.93;7.70;;;;;;;15.45;100.00;100654.78;5115876;28;20063;-48
2022/09/08 03:36:01;;;;;;;13.40;7.50;;;;;;;15.42;100.00;100649.56;5115698;28;20043;-47
2022/09/08 03:38:26;;;;;;;14.57;8.20;;;;;;;15.41;100.00;100655.59;5114296;28;20031;-46
2022/09/08 03:40:52;;;;;;;16.23;8.15;;;;;;;15.38;100.00;100655.59;5115717;28;20027;-45
2022/09/08 03:43:17;;;;;;;13.15;7.10;;;;;;;15.34;100.00;100666.84;5115209;28;20051;-47
2022/09/08 03:45:43;;;;;;;13.35;6.72;;;;;;;15.29;100.00;100671.13;5114747;28;20030;-47
2022/09/08 03:48:09;;;;;;;16.35;7.32;;;;;;;15.25;100.00;100684.94;5115597;28;20020;-46
2022/09/08 03:50:34;;;;;;;14.77;6.53;;;;;;;15.22;100.00;100696.19;5114662;28;20055;-44
2022/09/08 03:52:59;;;;;;;16.10;7.25;;;;;;;15.18;100.00;100696.97;5115617;28;20031;-45
2022/09/08 03:55:25;;;;;;;14.32;6.15;;;;;;;15.17;100.00;100682.28;5115188;28;20049;-46
2022/09/08 03:57:50;;;;;;;13.98;6.35;;;;;;;15.10;100.00;100663.16;5114592;28;20063;-44
2022/09/08 04:00:15;;;;;;;14.07;6.03;;;;;;;15.08;100.00;100662.31;5115450;28;20477;-43
2022/09/08 04:02:41;;;;;;;13.13;5.90;;;;;;;15.07;100.00;100657.13;5115154;28;20031;-44
2022/09/08 04:05:07;;;;;;;13.18;6.45;;;;;;;15.09;100.00;100652.78;5114349;28;20390;-45
2022/09/08 04:07:34;;;;;;;11.45;6.28;;;;;;;15.02;100.00;100651.88;5114993;28;20027;-49
2022/09/08 04:10:01;;;;;;;12.35;6.43;;;;;;;15.00;100.00;100648.38;5115097;28;20030;-46
2022/09/08 04:12:27;;;;;;;9.52;5.68;;;;;;;14.96;100.00;100647.50;5114272;28;20463;-43
2022/09/08 04:14:53;;;;;;;12.98;6.43;;;;;;;14.93;100.00;100646.59;5114991;28;20049;-47
2022/09/08 04:17:20;;;;;;;12.55;5.88;;;;;;;14.86;100.00;100650.00;5114835;28;20103;-45
2022/09/08 04:19:46;;;;;;;;;;;;;;;14.96;100.00;100651.81;5114805;28;20471;-44
2022/09/08 04:22:12;;;;;;;11.77;6.10;;;;;;;14.87;100.00;100651.75;5114785;28;19907;-46
2022/09/08 04:24:37;;;;;;;16.80;6.60;;;;;;;14.87;100.00;100656.94;5114762;27;20023;-48
2022/09/08 04:27:02;;;;;;;10.90;5.57;;;;;;;14.79;100.00;100655.13;5114164;28;20145;-48
2022/09/08 04:29:28;;;;;;;12.27;5.80;;;;;;;14.80;100.00;100666.38;5114556;27;20050;-48
2022/09/08 04:31:53;;;;;;;15.18;6.45;;;;;;;14.76;100.00;100673.28;5114740;28;20020;-47
2022/09/08 04:34:18;;;;;;;11.95;6.03;;;;;;;14.75;100.00;100670.66;5113673;28;20019;-47
2022/09/08 04:36:45;;;;;;;19.92;6.20;;;;;;;14.72;100.00;100668.91;5114500;28;20123;-46
2022/09/08 04:39:11;;;;;;;13.35;6.22;;;;;;;14.75;100.00;100668.94;5114528;27;20028;-47
2022/09/08 04:41:37;;;;;;;14.70;6.18;;;;;;;14.78;100.00;100668.97;5113783;28;20015;-46
2022/09/08 04:44:03;;;;;;;14.32;6.05;;;;;;;14.74;100.00;100667.19;5114533;28;20035;-43
2022/09/08 04:46:30;;;;;;;14.93;6.63;;;;;;;14.77;100.00;100672.41;5114595;28;20020;-44
2022/09/08 04:48:56;;;;;;;14.17;6.93;;;;;;;14.77;100.00;100672.41;5113787;28;20028;-43
2022/09/08 04:51:22;;;;;;;13.27;5.93;;;;;;;14.74;100.00;100677.56;5114204;28;20378;-44
2022/09/08 04:53:51;;;;;;;11.75;5.38;;;;;;;14.71;100.00;100676.69;5113345;28;20027;-46
2022/09/08 04:56:16;;;;;;;14.07;5.72;;;;;;;14.71;100.00;100680.13;5114207;28;20050;-45
2022/09/08 04:58:43;;;;;;;12.98;6.18;;;;;;;14.68;100.00;100680.13;5114363;28;20539;-43
2022/09/08 05:01:14;;;;;;;16.23;6.63;;;;;;;14.67;100.00;100680.06;5113278;28;20031;-47
2022/09/08 05:03:40;;;;;;;11.70;6.25;;;;;;;14.71;100.00;100674.94;5114237;28;20031;-47
2022/09/08 05:06:08;;;;;;;14.70;6.78;;;;;;;14.70;100.00;100680.13;5113973;28;20030;-43
2022/09/08 05:08:34;;;;;;;15.25;7.45;;;;;;;14.74;100.00;100682.75;5112987;28;20379;-44
2022/09/08 05:11:01;;;;;;;14.25;7.38;;;;;;;14.78;100.00;100683.66;5114190;28;20106;-43
2022/09/08 05:13:26;;;;;;;17.80;7.90;;;;;;;14.76;100.00;100686.25;5114094;28;20042;-43
2022/09/08 05:15:52;;;;;;;18.23;7.68;;;;;;;14.77;100.00;100687.97;5113203;28;20475;-42
2022/09/08 05:18:17;;;;;;;16.35;8.50;;;;;;;14.83;100.00;100687.16;5113448;28;20028;-44
2022/09/08 05:20:43;;;;;;;16.40;8.27;;;;;;;14.85;100.00;100684.56;5113675;28;20474;-44
2022/09/08 05:23:09;;;;;;;18.85;8.65;;;;;;;14.85;100.00;100687.16;5112759;28;20391;-45
2022/09/08 05:25:34;;;;;;;18.67;8.30;;;;;;;14.85;100.00;100680.28;5113785;28;20489;-44
2022/09/08 05:27:59;;;;;;;15.82;7.88;;;;;;;14.84;100.00;100688.06;5113791;28;20556;-45
2022/09/08 05:30:25;;;;;;;14.70;7.75;;;;;;;14.86;100.00;100688.91;5112705;28;20035;-44
2022/09/08 05:32:51;;;;;;;16.48;8.80;;;;;;;14.83;100.00;100692.34;5113655;28;20027;-43
2022/09/08 05:35:16;;;;;;;17.63;9.45;;;;;;;14.84;100.00;100685.47;5113306;28;20024;-43
2022/09/08 05:37:41;;;;;;;17.17;9.10;;;;;;;14.82;100.00;100685.41;5112657;28;20030;-45
2022/09/08 05:40:07;;;;;;;14.68;8.75;;;;;;;14.85;100.00;100689.75;5113499;28;20092;-44
2022/09/08 05:42:32;;;;;;;17.75;9.30;;;;;;;14.82;100.00;100690.59;5113370;28;20035;-43
2022/09/08 05:44:57;;;;;;;16.80;9.43;;;;;;;14.82;100.00;100685.41;5112745;28;20023;-44
2022/09/08 05:47:23;;;;;;;16.13;9.50;;;;;;;14.82;100.00;100675.94;5113092;28;20031;-44
2022/09/08 05:49:48;;;;;;;20.90;10.57;;;;;;;14.82;100.00;100681.13;5113367;28;20536;-43
2022/09/08 05:52:13;;;;;;;22.88;10.82;;;;;;;14.84;100.00;100678.53;5112746;28;20093;-46
2022/09/08 05:54:39;;;;;;;18.30;11.00;;;;;;;14.87;100.00;100685.47;5113305;28;20042;-47
2022/09/08 05:57:05;;;;;;;23.23;11.75;;;;;;;14.91;100.00;100687.22;5112556;28;20110;-43
2022/09/08 05:59:30;;;;;;;21.88;11.15;;;;;;;14.89;100.00;100687.22;5114303;28;20062;-44
2022/09/08 06:01:56;;;;;;;17.95;11.43;;;;;;;14.89;100.00;100688.97;5120101;27;20043;-43
2022/09/08 06:04:21;;;;;;;20.13;11.60;;;;;;;14.91;100.00;100695.03;5118993;27;20496;-43
2022/09/08 06:06:47;;;;;;;18.25;11.82;;;;;;;14.88;100.00;100684.63;5119997;28;20128;-44
2022/09/08 06:09:12;;;;;;;22.85;12.75;;;;;;;14.88;100.00;100695.00;5120091;27;20024;-45
2022/09/08 06:11:38;;;;;;;21.30;11.73;;;;;;;14.88;100.00;100689.81;5119062;27;20072;-43
2022/09/08 06:14:05;;;;;;;19.02;12.20;;;;;;;14.90;100.00;100680.28;5119834;27;20034;-43
2022/09/08 06:16:31;;;;;;;24.73;12.47;;;;;;;14.87;100.00;100677.69;5119860;27;20016;-47
2022/09/08 06:18:58;;;;;;;20.02;11.88;;;;;;;14.87;100.00;100688.06;5119192;27;20022;-44
2022/09/08 06:21:26;;;;;;;20.15;12.23;;;;;;;14.90;100.00;100683.78;5119676;27;20474;-44
2022/09/08 06:23:53;;;;;;;;;;;;;;;14.97;100.00;100687.28;5120296;27;20471;-47
2022/09/08 06:26:38;;;;;;;23.17;11.90;;;;;;;14.98;100.00;100689.91;5119157;27;19918;-44
2022/09/08 06:29:25;;;;;;;19.67;13.13;;;;;;;14.99;100.00;100695.97;5119709;27;20459;-47
2022/09/08 06:31:57;;;;;;;18.80;12.65;;;;;;;15.03;100.00;100689.94;5116878;27;20031;-43
2022/09/08 06:34:29;;;;;;;20.00;12.10;;;;;;;14.99;100.00;100693.38;5116878;27;20042;-48
2022/09/08 06:37:01;;;;;;;19.95;12.85;;;;;;;15.03;100.00;100689.06;5115325;27;20046;-44
2022/09/08 06:39:45;;;;;;;19.73;12.23;;;;;;;15.03;100.00;100689.94;5097937;28;20042;-46
2022/09/08 06:42:39;;;;;;;18.27;12.85;;;;;;;15.05;100.00;100688.22;5100774;27;20433;-43
2022/09/08 06:45:14;;;;;;;21.05;12.60;;;;;;;15.08;100.00;100690.84;5100078;28;20043;-45
2022/09/08 06:47:47;;;;;;;17.15;12.50;;;;;;;15.09;100.00;100697.81;5103431;27;20023;-47
2022/09/08 06:50:15;;;;;;;20.42;12.95;;;;;;;15.15;100.00;100704.75;5110955;28;20050;-47
2022/09/08 06:52:51;;;;;;;18.58;13.05;;;;;;;15.17;100.00;100704.75;5115662;27;20023;-48
2022/09/08 06:55:33;;;;;;;20.48;12.55;;;;;;;15.25;100.00;100711.75;5098571;28;20457;-43
2022/09/08 06:58:14;;;;;;;20.88;13.00;;;;;;;15.27;100.00;100709.16;5111308;28;20493;-49
2022/09/08 07:00:58;;;;;;;19.70;12.27;;;;;;;15.33;100.00;100709.22;5116491;27;20474;-47
2022/09/08 07:03:45;;;;;;;20.88;12.00;;;;;;;15.35;100.00;100704.03;5113488;28;20055;-47
2022/09/08 07:06:10;;;;;;;20.50;12.50;;;;;;;15.42;100.00;100704.09;5101073;28;20069;-43
2022/09/08 07:09:02;;;;;;;20.48;13.18;;;;;;;15.51;100.00;100707.63;5101886;27;20052;-44
2022/09/08 07:11:40;;;;;;;20.85;12.15;;;;;;;15.57;100.00;100699.88;5104411;28;20451;-47
2022/09/08 07:14:33;;;;;;;18.88;11.80;;;;;;;15.63;100.00;100703.41;5097249;28;20038;-47
2022/09/08 07:17:05;;;;;;;19.67;13.70;;;;;;;15.63;100.00;100703.41;5115998;28;20395;-45
2022/09/08 07:19:50;;;;;;;20.42;12.93;;;;;;;15.71;100.00;100706.03;5107412;28;20020;-43
2022/09/08 07:22:45;;;;;;;21.30;14.35;;;;;;;15.78;100.00;100706.94;5097639;28;20030;-46
2022/09/08 07:25:18;;;;;;;19.45;13.13;;;;;;;15.73;100.00;100706.03;5113470;28;20039;-44
2022/09/08 07:27:47;;;;;;;22.35;14.32;;;;;;;15.71;100.00;100703.44;5103560;27;20027;-46
2022/09/08 07:30:16;;;;;;;21.25;14.68;;;;;;;15.69;100.00;100707.75;5096412;27;20028;-43
2022/09/08 07:32:45;;;;;;;20.30;15.00;;;;;;;15.81;100.00;100706.97;5102059;28;20547;-41
2022/09/08 07:35:28;;;;;;;20.35;14.43;;;;;;;15.84;100.00;100706.13;5102279;28;20584;-43
2022/09/08 07:38:02;;;;;;;19.92;14.63;;;;;;;15.92;100.00;100709.63;5106222;28;20065;-46
2022/09/08 07:40:40;;;;;;;21.02;14.43;;;;;;;15.94;100.00;100700.13;5102166;28;20031;-42
2022/09/08 07:43:10;;;;;;;19.92;13.55;;;;;;;15.92;100.00;100709.63;5099560;28;20048;-42
2022/09/08 07:45:53;;;;;;;20.02;13.00;;;;;;;15.94;100.00;100705.31;5104545;28;20031;-47
2022/09/08 07:48:50;;;;;;;19.23;13.63;;;;;;;15.95;100.00;100696.66;5107304;28;20031;-45
2022/09/08 07:51:19;;;;;;;17.55;12.93;;;;;;;15.96;100.00;100711.41;5105249;28;20032;-44
2022/09/08 07:53:52;;;;;;;18.15;13.27;;;;;;;15.93;100.00;100708.78;5100981;28;20031;-43
2022/09/08 07:56:39;;;;;;;18.67;13.30;;;;;;;16.09;100.00;100708.00;5102081;28;20378;-42
2022/09/08 07:59:11;;;;;;;21.75;14.13;;;;;;;16.07;100.00;100708.84;5101757;28;20028;-46
2022/09/08 08:02:12;;;;;;;18.02;13.13;;;;;;;16.22;100.00;100713.25;5112056;28;20035;-44
2022/09/08 08:04:43;;;;;;;18.23;13.27;;;;;;;16.48;100.00;100715.94;5103183;28;20019;-45
2022/09/08 08:07:17;;;;;;;17.17;13.02;;;;;;;16.49;100.00;100719.41;5098323;28;20475;-42
2022/09/08 08:09:51;;;;;;;20.35;12.25;;;;;;;16.59;100.00;100721.16;5105644;28;20079;-49
2022/09/08 08:12:26;;;;;;;17.42;11.45;;;;;;;16.61;100.00;100722.06;5090780;27;20082;-47
2022/09/08 08:14:57;;;;;;;14.80;11.07;;;;;;;16.70;100.00;100716.88;5101437;28;20027;-44
2022/09/08 08:17:37;;;;;;;13.60;10.68;;;;;;;16.69;100.00;100716.88;5100890;28;21557;-43
2022/09/08 08:20:12;;;;;;;15.10;10.98;;;;;;;16.45;100.00;100722.00;5103409;28;20039;-42
2022/09/08 08:22:52;;;;;;;15.25;11.50;;;;;;;16.62;100.00;100719.44;5100315;28;20024;-42
2022/09/08 08:25:29;;;;;;;14.40;11.13;;;;;;;16.75;100.00;100725.53;5103494;28;20034;-42
2022/09/08 08:28:18;;;;;;;12.13;9.70;;;;;;;16.92;100.00;100722.16;5099048;28;20046;-43
2022/09/08 08:30:49;;;;;;;11.60;9.45;;;;;;;16.98;100.00;100722.16;5101850;28;20028;-45
2022/09/08 08:33:21;;;;;;;13.48;10.32;;;;;;;17.22;100.00;100728.25;5113731;28;20051;-44
2022/09/08 08:35:55;;;;;;;14.15;11.05;;;;;;;17.43;100.00;100723.03;5107901;28;20042;-45
2022/09/08 08:38:23;;;;;;;11.57;9.18;;;;;;;17.71;99.04;100729.94;5094564;28;20061;-42
2022/09/08 08:40:57;;;;;;;13.82;9.35;;;;;;;18.00;98.39;100727.31;5095161;28;20388;-43
2022/09/08 08:43:44;;;;;;;11.73;8.82;;;;;;;17.97;94.66;100718.63;5102485;28;20063;-43
2022/09/08 08:46:28;;;;;;;9.57;6.85;;;;;;;17.91;93.36;100728.16;5101318;28;20147;-45
2022/09/08 08:49:24;;;;;;;11.25;6.15;;;;;;;17.93;93.02;100736.00;5103958;28;20031;-45
2022/09/08 08:52:12;;;;;;;7.18;5.68;;;;;;;18.19;93.49;100735.94;5095739;28;20040;-43
2022/09/08 08:55:03;;;;;;;11.50;6.18;;;;;;;18.20;91.91;100732.44;5094803;28;20054;-44
2022/09/08 08:57:48;;;;;;;11.52;4.78;;;;;;;18.06;88.91;100732.50;5092032;28;20393;-44
2022/09/08 09:00:32;;;;;;;10.18;5.20;;;;;;;17.78;90.07;100736.91;5107116;28;20142;-43
2022/09/08 09:03:04;;;;;;;9.15;5.40;;;;;;;17.61;90.01;100729.06;5114296;28;20050;-45
2022/09/08 09:05:49;;;;;;;9.70;5.25;;;;;;;17.54;90.53;100724.75;5093994;28;20032;-45
2022/09/08 09:08:43;;;;;;;10.00;5.55;;;;;;;17.38;91.87;100731.72;5092191;28;20036;-43
2022/09/08 09:11:49;;;;;;;8.82;5.43;;;;;;;17.77;92.21;100724.72;5093638;28;20032;-45
2022/09/08 09:15:02;;;;;;;7.97;4.55;;;;;;;18.04;89.78;100722.97;5092610;28;20020;-43
2022/09/08 09:18:04;;;;;;;9.60;4.68;;;;;;;17.81;89.59;100725.59;5091467;28;20057;-44
2022/09/08 09:20:49;;;;;;;10.85;4.90;;;;;;;17.50;90.18;100736.91;5093367;28;20031;-46
2022/09/08 09:23:36;;;;;;;9.82;4.68;;;;;;;17.42;91.75;100734.31;5092702;28;20024;-43
2022/09/08 09:26:19;;;;;;;7.65;4.18;;;;;;;17.43;91.36;100730.84;5093325;28;20032;-43
2022/09/08 09:28:54;;;;;;;8.48;3.83;;;;;;;17.42;91.55;100734.31;5095688;28;20047;-45
2022/09/08 09:31:22;;;;;;;9.95;4.10;;;;;;;17.27;91.04;100724.78;5101441;28;20482;-45
2022/09/08 09:34:15;;;;;;;8.05;3.80;;;;;;;17.42;92.21;100734.31;5113442;28;20027;-44
2022/09/08 09:36:55;;;;;;;9.20;4.10;;;;;;;17.98;90.81;100731.66;5112394;28;20027;-44
2022/09/08 09:39:46;;;;;;;8.95;4.05;;;;;;;18.30;88.17;100720.22;5113162;28;20028;-43
2022/09/08 09:42:33;;;;;;;6.47;3.55;;;;;;;18.36;86.13;100730.66;5112339;28;20486;-44
2022/09/08 09:45:23;;;;;;;10.15;3.28;;;;;;;18.29;86.78;100720.25;5112310;28;20075;-44
2022/09/08 09:48:10;;;;;;;7.28;3.08;;;;;;;18.25;84.27;100727.22;5101923;28;20024;-44
2022/09/08 09:50:59;;;;;;;8.20;2.95;;;;;;;18.72;83.76;100713.06;5091326;28;20468;-44
2022/09/08 09:53:53;;;;;;;7.80;2.25;;;;;;;19.36;81.21;100720.44;5104661;28;20039;-43
2022/09/08 09:56:36;;;;;;;5.43;2.00;;;;;;;19.33;78.38;100721.34;5112237;28;20019;-43
2022/09/08 09:59:24;;;;;;;5.45;1.83;;;;;;;19.47;75.17;100722.94;5104172;28;20031;-43
2022/09/08 10:02:02;;;;;;;6.57;1.80;;;;;;;19.40;73.61;100723.00;5096261;28;20387;-44
2022/09/08 10:04:45;;;;;;;10.82;2.05;;;;;;;19.80;75.00;100719.13;5112324;28;20059;-43
2022/09/08 10:07:39;;;;;;;11.73;1.92;;;;;;;19.94;74.65;100721.63;5097285;28;20451;-45
2022/09/08 10:10:41;;;;;;;6.20;1.70;;;;;;;20.18;72.31;100719.59;5112921;28;20375;-43
2022/09/08 10:13:26;;;;;;;7.90;1.73;;;;;;;20.45;71.59;100725.38;5099472;28;20387;-43
2022/09/08 10:16:20;;;;;;;7.45;2.00;;;;;;;20.79;68.63;100720.56;5094950;28;20036;-43
2022/09/08 10:19:04;;;;;;;5.95;2.00;;;;;;;20.72;67.98;100730.28;5093932;28;20040;-43
2022/09/08 10:21:58;;;;;;;6.45;2.00;;;;;;;20.20;71.49;100726.56;5096773;28;20024;-43
2022/09/08 10:24:58;;;;;;;8.20;2.22;;;;;;;20.17;70.49;100720.50;5094279;28;20036;-44
2022/09/08 10:27:45;;;;;;;8.40;2.13;;;;;;;20.20;71.08;100721.31;5103707;28;20035;-44
2022/09/08 10:30:30;;;;;;;9.25;2.78;;;;;;;20.33;70.48;100722.03;5102761;28;20040;-42
2022/09/08 10:33:27;;;;;;;6.80;1.88;;;;;;;20.47;70.38;100724.47;5092311;28;20024;-42
2022/09/08 10:36:00;;;;;;;6.50;1.95;;;;;;;21.53;66.32;100723.75;5092988;28;20034;-42
2022/09/08 10:38:47;;;;;;;7.82;1.90;;;;;;;22.60;63.39;100730.41;5091924;28;20050;-42
2022/09/08 10:41:49;;;;;;;8.32;2.03;;;;;;;22.84;59.96;100728.16;5092170;28;20379;-44
2022/09/08 10:44:37;;;;;;;7.60;1.95;;;;;;;23.11;57.93;100726.63;5086646;28;20040;-42
2022/09/08 10:47:26;;;;;;;6.68;1.77;;;;;;;22.28;59.45;100724.06;5094140;28;20036;-42
2022/09/08 10:49:52;;;;;;;8.15;1.58;;;;;;;22.24;60.13;100722.41;5096459;28;20024;-42
2022/09/08 10:52:48;;;;;;;8.30;2.03;;;;;;;22.55;62.24;100727.03;5096492;28;20031;-41
2022/09/08 10:55:32;;;;;;;;;;;;;;;23.18;58.20;100724.72;5096408;28;20036;-42
2022/09/08 10:58:38;;;;;;;7.97;1.73;;;;;;;23.44;57.51;100723.19;5098436;28;19916;-42
2022/09/08 11:01:41;;;;;;;8.63;2.22;;;;;;;23.03;57.05;100718.03;5112195;28;20118;-43
2022/09/08 11:04:27;;;;;;;10.15;2.22;;;;;;;23.12;58.43;100716.94;5116288;28;20039;-42
2022/09/08 11:07:06;;;;;;;6.45;1.80;;;;;;;22.69;57.38;100719.69;5114375;28;20035;-42
2022/09/08 11:09:46;;;;;;;12.25;2.13;;;;;;;21.94;60.23;100723.91;5108069;28;20024;-43
2022/09/08 11:12:33;;;;;;;8.30;1.80;;;;;;;21.10;62.46;100725.34;5097795;28;20032;-42
2022/09/08 11:15:29;;;;;;;7.87;2.00;;;;;;;20.86;65.52;100726.56;5107542;28;20032;-42
2022/09/08 11:18:18;;;;;;;7.40;2.25;;;;;;;20.42;65.97;100721.06;5103149;28;20297;-42
2022/09/08 11:20:51;;;;;;;7.57;2.05;;;;;;;20.62;66.08;100720.78;5096859;28;20020;-44
2022/09/08 11:23:25;;;;;;;6.75;2.30;;;;;;;21.91;64.19;100719.59;5097726;28;20028;-49
2022/09/08 11:26:02;;;;;;;7.90;1.65;;;;;;;23.22;58.27;100713.22;5095182;28;20043;-47
2022/09/08 11:28:37;;;;;;;5.43;1.80;;;;;;;24.13;56.61;100699.38;5104107;28;20028;-49
2022/09/08 11:31:49;;;;;;;7.28;1.65;;;;;;;24.91;53.13;100711.97;5097160;28;20601;-43
2022/09/08 11:34:36;;;;;;;7.05;1.83;;;;;;;24.34;54.83;100700.53;5071917;28;20040;-44
2022/09/08 11:37:23;;;;;;;8.88;2.05;;;;;;;23.82;54.02;100703.75;5097167;28;20028;-49
2022/09/08 11:39:55;;;;;;;8.02;2.05;;;;;;;22.60;53.79;100706.78;5103971;28;20031;-45
2022/09/08 11:42:42;;;;;;;9.45;2.15;;;;;;;22.14;58.43;100705.13;5099706;28;20318;-46
2022/09/08 11:45:49;;;;;;;9.38;2.03;;;;;;;22.20;58.51;100703.22;5099254;28;20044;-44
2022/09/08 11:48:44;;;;;;;7.22;2.00;;;;;;;22.38;58.40;100697.66;5056568;28;20112;-45